sensor_id;sensor_type;location;lat;lon;timestamp;pressure;altitude;pressure_sealevel;temperature;humidity
36242;BME280;22283;42.748;12.732;2023-08-01T00:01:25;97571.63;;;21.26;66.84
36242;BME280;22283;42.748;12.732;2023-08-01T00:06:26;97554.63;;;21.26;68.23
36242;BME280;22283;42.748;12.732;2023-08-01T00:11:26;97554.97;;;21.16;68.40
36242;BME280;22283;42.748;12.732;2023-08-01T00:16:27;97564.56;;;21.25;70.79
36242;BME280;22283;42.748;12.732;2023-08-01T00:21:28;97543.00;;;21.19;71.52
36242;BME280;22283;42.748;12.732;2023-08-01T00:26:31;97530.97;;;21.15;72.87
36242;BME280;22283;42.748;12.732;2023-08-01T00:31:31;97530.84;;;21.23;73.60
36242;BME280;22283;42.748;12.732;2023-08-01T00:36:33;97528.91;;;21.17;73.51
36242;BME280;22283;42.748;12.732;2023-08-01T00:41:33;97535.84;;;21.04;73.25
36242;BME280;22283;42.748;12.732;2023-08-01T00:46:34;97512.03;;;20.80;73.58
36242;BME280;22283;42.748;12.732;2023-08-01T00:51:35;97527.56;;;20.63;74.38
36242;BME280;22283;42.748;12.732;2023-08-01T00:56:36;97522.75;;;20.58;75.36
36242;BME280;22283;42.748;12.732;2023-08-01T01:01:37;97515.09;;;20.55;77.03
36242;BME280;22283;42.748;12.732;2023-08-01T01:06:41;97495.94;;;20.65;78.98
36242;BME280;22283;42.748;12.732;2023-08-01T01:11:46;97497.19;;;20.84;78.57
36242;BME280;22283;42.748;12.732;2023-08-01T01:16:47;97490.50;;;21.01;78.04
36242;BME280;22283;42.748;12.732;2023-08-01T01:21:47;97486.25;;;21.13;77.40
36242;BME280;22283;42.748;12.732;2023-08-01T01:27:08;97481.13;;;21.19;76.91
36242;BME280;22283;42.748;12.732;2023-08-01T01:32:09;97485.34;;;21.06;78.16
36242;BME280;22283;42.748;12.732;2023-08-01T01:37:10;97470.53;;;20.89;78.93
36242;BME280;22283;42.748;12.732;2023-08-01T01:42:11;97479.63;;;20.67;78.43
36242;BME280;22283;42.748;12.732;2023-08-01T01:47:13;97470.81;;;20.51;78.54
36242;BME280;22283;42.748;12.732;2023-08-01T01:52:14;97468.22;;;20.43;79.59
36242;BME280;22283;42.748;12.732;2023-08-01T01:57:18;97460.91;;;20.37;79.73
36242;BME280;22283;42.748;12.732;2023-08-01T02:02:18;97462.31;;;20.33;80.55
36242;BME280;22283;42.748;12.732;2023-08-01T02:07:22;97451.09;;;20.29;82.26
36242;BME280;22283;42.748;12.732;2023-08-01T02:12:23;97447.38;;;20.30;82.25
36242;BME280;22283;42.748;12.732;2023-08-01T02:17:24;97435.22;;;20.49;82.16
36242;BME280;22283;42.748;12.732;2023-08-01T02:22:26;97444.66;;;20.45;82.27
36242;BME280;22283;42.748;12.732;2023-08-01T02:27:27;97442.78;;;20.24;81.72
36242;BME280;22283;42.748;12.732;2023-08-01T02:32:28;97436.16;;;20.05;82.71
36242;BME280;22283;42.748;12.732;2023-08-01T02:37:29;97430.91;;;19.97;83.39
36242;BME280;22283;42.748;12.732;2023-08-01T02:42:29;97426.69;;;19.88;83.93
36242;BME280;22283;42.748;12.732;2023-08-01T02:47:30;97414.66;;;19.84;84.46
36242;BME280;22283;42.748;12.732;2023-08-01T02:52:31;97421.03;;;19.83;85.03
36242;BME280;22283;42.748;12.732;2023-08-01T02:57:32;97423.81;;;19.89;84.86
36242;BME280;22283;42.748;12.732;2023-08-01T03:02:33;97437.03;;;19.91;85.36
36242;BME280;22283;42.748;12.732;2023-08-01T03:07:34;97424.50;;;19.98;84.58
36242;BME280;22283;42.748;12.732;2023-08-01T03:12:34;97420.19;;;19.97;84.91
36242;BME280;22283;42.748;12.732;2023-08-01T03:17:35;97421.69;;;20.21;82.30
36242;BME280;22283;42.748;12.732;2023-08-01T03:22:40;97426.19;;;20.35;81.01
36242;BME280;22283;42.748;12.732;2023-08-01T03:27:42;97420.22;;;20.40;80.92
36242;BME280;22283;42.748;12.732;2023-08-01T03:32:43;97434.25;;;20.35;81.51
36242;BME280;22283;42.748;12.732;2023-08-01T03:37:44;97439.44;;;20.22;82.13
36242;BME280;22283;42.748;12.732;2023-08-01T03:42:46;97422.75;;;20.05;82.92
36242;BME280;22283;42.748;12.732;2023-08-01T03:47:53;97433.50;;;20.05;82.94
36242;BME280;22283;42.748;12.732;2023-08-01T03:52:54;97433.84;;;20.02;83.05
36242;BME280;22283;42.748;12.732;2023-08-01T03:57:57;97431.94;;;19.96;83.45
36242;BME280;22283;42.748;12.732;2023-08-01T04:02:58;97442.94;;;20.01;83.15
36242;BME280;22283;42.748;12.732;2023-08-01T04:07:59;97447.94;;;20.04;82.91
36242;BME280;22283;42.748;12.732;2023-08-01T04:13:00;97447.94;;;20.04;83.02
36242;BME280;22283;42.748;12.732;2023-08-01T04:18:00;97447.81;;;20.12;82.53
36242;BME280;22283;42.748;12.732;2023-08-01T04:23:01;97458.53;;;20.27;81.89
36242;BME280;22283;42.748;12.732;2023-08-01T04:28:02;97456.34;;;20.37;81.62
36242;BME280;22283;42.748;12.732;2023-08-01T04:33:03;97459.66;;;20.54;80.81
36242;BME280;22283;42.748;12.732;2023-08-01T04:38:03;97458.00;;;21.52;76.63
36242;BME280;22283;42.748;12.732;2023-08-01T04:43:04;97461.22;;;23.12;67.46
36242;BME280;22283;42.748;12.732;2023-08-01T04:48:05;97456.63;;;24.17;61.71
36242;BME280;22283;42.748;12.732;2023-08-01T04:53:07;97469.88;;;25.51;55.95
36242;BME280;22283;42.748;12.732;2023-08-01T04:58:07;97467.19;;;26.25;53.47
36242;BME280;22283;42.748;12.732;2023-08-01T05:03:08;97455.69;;;26.60;51.56
36242;BME280;22283;42.748;12.732;2023-08-01T05:08:09;97458.69;;;26.70;51.49
36242;BME280;22283;42.748;12.732;2023-08-01T05:13:10;97466.28;;;27.45;49.40
36242;BME280;22283;42.748;12.732;2023-08-01T05:18:10;97467.47;;;28.25;48.84
36242;BME280;22283;42.748;12.732;2023-08-01T05:23:11;97472.16;;;27.30;50.24
36242;BME280;22283;42.748;12.732;2023-08-01T05:28:12;97481.03;;;26.95;51.37
36242;BME280;22283;42.748;12.732;2023-08-01T05:33:13;97465.09;;;27.76;49.60
36242;BME280;22283;42.748;12.732;2023-08-01T05:38:13;97475.97;;;28.68;47.09
36242;BME280;22283;42.748;12.732;2023-08-01T05:43:14;97490.38;;;28.52;47.95
36242;BME280;22283;42.748;12.732;2023-08-01T05:48:15;97476.28;;;29.01;46.09
36242;BME280;22283;42.748;12.732;2023-08-01T05:53:16;97492.22;;;29.09;45.09
36242;BME280;22283;42.748;12.732;2023-08-01T05:58:17;97485.81;;;29.15;44.79
36242;BME280;22283;42.748;12.732;2023-08-01T06:03:17;97484.06;;;29.09;45.18
36242;BME280;22283;42.748;12.732;2023-08-01T06:08:18;97482.69;;;29.23;44.94
36242;BME280;22283;42.748;12.732;2023-08-01T06:13:19;97478.59;;;29.76;43.87
36242;BME280;22283;42.748;12.732;2023-08-01T06:18:20;97486.44;;;29.22;45.31
36242;BME280;22283;42.748;12.732;2023-08-01T06:23:21;97472.25;;;29.37;44.49
36242;BME280;22283;42.748;12.732;2023-08-01T06:28:22;97448.09;;;30.01;43.48
36242;BME280;22283;42.748;12.732;2023-08-01T06:33:23;97453.78;;;29.95;42.95
36242;BME280;22283;42.748;12.732;2023-08-01T06:38:24;97455.38;;;30.34;42.13
36242;BME280;22283;42.748;12.732;2023-08-01T06:43:24;97437.88;;;30.30;43.10
36242;BME280;22283;42.748;12.732;2023-08-01T06:48:25;97429.09;;;29.84;44.21
36242;BME280;22283;42.748;12.732;2023-08-01T06:53:26;97437.66;;;29.71;43.74
36242;BME280;22283;42.748;12.732;2023-08-01T06:58:27;97433.38;;;29.58;44.79
36242;BME280;22283;42.748;12.732;2023-08-01T07:03:28;97434.38;;;29.35;44.90
36242;BME280;22283;42.748;12.732;2023-08-01T07:08:29;97424.34;;;29.75;44.05
36242;BME280;22283;42.748;12.732;2023-08-01T07:13:29;97426.75;;;29.71;44.41
36242;BME280;22283;42.748;12.732;2023-08-01T07:18:30;97416.22;;;29.58;44.73
36242;BME280;22283;42.748;12.732;2023-08-01T07:23:33;97405.91;;;29.82;44.61
36242;BME280;22283;42.748;12.732;2023-08-01T07:28:35;97397.25;;;29.68;44.88
36242;BME280;22283;42.748;12.732;2023-08-01T07:33:36;97390.09;;;29.62;44.55
36242;BME280;22283;42.748;12.732;2023-08-01T07:38:39;97392.16;;;29.55;45.23
36242;BME280;22283;42.748;12.732;2023-08-01T07:43:43;97388.19;;;29.84;45.18
36242;BME280;22283;42.748;12.732;2023-08-01T07:48:44;97389.00;;;30.29;44.17
36242;BME280;22283;42.748;12.732;2023-08-01T07:53:44;97387.47;;;30.65;45.14
36242;BME280;22283;42.748;12.732;2023-08-01T07:58:45;97376.44;;;31.19;44.42
36242;BME280;22283;42.748;12.732;2023-08-01T08:03:46;97393.59;;;31.47;43.21
36242;BME280;22283;42.748;12.732;2023-08-01T08:08:47;97383.31;;;31.64;42.71
36242;BME280;22283;42.748;12.732;2023-08-01T08:13:47;97380.72;;;31.90;41.85
36242;BME280;22283;42.748;12.732;2023-08-01T08:18:48;97366.50;;;31.98;41.61
36242;BME280;22283;42.748;12.732;2023-08-01T08:23:49;97357.19;;;31.89;41.49
36242;BME280;22283;42.748;12.732;2023-08-01T08:28:49;97362.97;;;32.02;42.11
36242;BME280;22283;42.748;12.732;2023-08-01T08:33:50;97366.28;;;32.04;41.51
36242;BME280;22283;42.748;12.732;2023-08-01T08:38:51;97360.84;;;32.20;41.25
36242;BME280;22283;42.748;12.732;2023-08-01T08:43:55;97353.16;;;32.17;40.68
36242;BME280;22283;42.748;12.732;2023-08-01T08:48:57;97351.53;;;32.26;40.23
36242;BME280;22283;42.748;12.732;2023-08-01T08:53:58;97370.69;;;32.26;39.71
36242;BME280;22283;42.748;12.732;2023-08-01T08:59:01;97369.25;;;32.03;39.62
36242;BME280;22283;42.748;12.732;2023-08-01T09:04:03;97371.84;;;32.35;40.90
36242;BME280;22283;42.748;12.732;2023-08-01T09:09:11;97357.88;;;32.47;39.86
36242;BME280;22283;42.748;12.732;2023-08-01T09:14:12;97361.19;;;32.74;40.15
36242;BME280;22283;42.748;12.732;2023-08-01T09:19:21;97347.81;;;32.83;40.01
36242;BME280;22283;42.748;12.732;2023-08-01T09:24:22;97331.06;;;33.15;38.75
36242;BME280;22283;42.748;12.732;2023-08-01T09:29:23;97325.50;;;33.56;38.06
36242;BME280;22283;42.748;12.732;2023-08-01T09:34:26;97328.47;;;33.65;37.36
36242;BME280;22283;42.748;12.732;2023-08-01T09:39:27;97329.88;;;33.62;37.53
36242;BME280;22283;42.748;12.732;2023-08-01T09:44:29;97312.09;;;33.39;37.31
36242;BME280;22283;42.748;12.732;2023-08-01T09:49:31;97302.34;;;33.77;37.16
36242;BME280;22283;42.748;12.732;2023-08-01T09:54:32;97296.78;;;34.03;36.51
36242;BME280;22283;42.748;12.732;2023-08-01T09:59:33;97270.53;;;33.82;36.23
36242;BME280;22283;42.748;12.732;2023-08-01T10:04:36;97280.81;;;34.44;36.29
36242;BME280;22283;42.748;12.732;2023-08-01T10:09:37;97284.44;;;34.40;35.48
36242;BME280;22283;42.748;12.732;2023-08-01T10:14:38;97294.41;;;34.31;35.23
36242;BME280;22283;42.748;12.732;2023-08-01T10:19:41;97289.91;;;34.50;34.90
36242;BME280;22283;42.748;12.732;2023-08-01T10:24:42;97280.38;;;33.88;36.12
36242;BME280;22283;42.748;12.732;2023-08-01T10:29:44;97277.56;;;34.42;35.65
36242;BME280;22283;42.748;12.732;2023-08-01T10:34:51;97279.75;;;34.06;36.51
36242;BME280;22283;42.748;12.732;2023-08-01T10:39:59;97275.59;;;33.59;36.47
36242;BME280;22283;42.748;12.732;2023-08-01T10:45:00;97280.16;;;32.99;38.03
36242;BME280;22283;42.748;12.732;2023-08-01T10:50:01;97285.56;;;33.14;37.38
36242;BME280;22283;42.748;12.732;2023-08-01T10:55:03;97278.31;;;33.59;37.20
36242;BME280;22283;42.748;12.732;2023-08-01T11:00:06;97292.38;;;34.07;35.87
36242;BME280;22283;42.748;12.732;2023-08-01T11:05:11;97284.25;;;33.76;36.42
36242;BME280;22283;42.748;12.732;2023-08-01T11:10:13;97287.47;;;33.94;37.08
36242;BME280;22283;42.748;12.732;2023-08-01T11:15:14;97267.53;;;33.78;37.23
36242;BME280;22283;42.748;12.732;2023-08-01T11:20:16;97264.19;;;33.26;38.26
36242;BME280;22283;42.748;12.732;2023-08-01T11:25:17;97257.06;;;33.10;38.52
36242;BME280;22283;42.748;12.732;2023-08-01T11:30:18;97257.06;;;33.15;38.40
36242;BME280;22283;42.748;12.732;2023-08-01T11:35:19;97250.69;;;33.50;36.71
36242;BME280;22283;42.748;12.732;2023-08-01T11:40:20;97240.38;;;33.82;35.93
36242;BME280;22283;42.748;12.732;2023-08-01T11:45:21;97246.09;;;34.30;34.79
36242;BME280;22283;42.748;12.732;2023-08-01T11:50:23;97237.38;;;34.86;33.05
36242;BME280;22283;42.748;12.732;2023-08-01T11:55:27;97218.44;;;35.08;33.68
36242;BME280;22283;42.748;12.732;2023-08-01T12:00:29;97205.34;;;35.00;33.38
36242;BME280;22283;42.748;12.732;2023-08-01T12:05:29;97204.44;;;35.10;33.18
36242;BME280;22283;42.748;12.732;2023-08-01T12:10:41;97186.53;;;35.55;32.95
36242;BME280;22283;42.748;12.732;2023-08-01T12:15:42;97165.16;;;35.28;32.31
36242;BME280;22283;42.748;12.732;2023-08-01T12:20:43;97170.47;;;35.19;33.56
36242;BME280;22283;42.748;12.732;2023-08-01T12:25:44;97173.06;;;34.87;32.67
36242;BME280;22283;42.748;12.732;2023-08-01T12:30:45;97170.78;;;34.36;34.47
36242;BME280;22283;42.748;12.732;2023-08-01T12:35:46;97162.63;;;33.91;35.47
36242;BME280;22283;42.748;12.732;2023-08-01T12:40:46;97152.47;;;33.92;35.20
36242;BME280;22283;42.748;12.732;2023-08-01T12:45:48;97145.91;;;34.56;34.34
36242;BME280;22283;42.748;12.732;2023-08-01T12:50:48;97134.16;;;34.21;34.52
36242;BME280;22283;42.748;12.732;2023-08-01T12:55:50;97128.25;;;34.04;34.88
36242;BME280;22283;42.748;12.732;2023-08-01T13:00:51;97121.69;;;34.29;33.16
36242;BME280;22283;42.748;12.732;2023-08-01T13:05:52;97120.59;;;34.83;34.12
36242;BME280;22283;42.748;12.732;2023-08-01T13:10:53;97108.50;;;34.60;33.77
36242;BME280;22283;42.748;12.732;2023-08-01T13:15:56;97104.06;;;34.88;34.16
36242;BME280;22283;42.748;12.732;2023-08-01T13:20:57;97108.69;;;35.17;33.88
36242;BME280;22283;42.748;12.732;2023-08-01T13:25:59;97115.19;;;35.02;33.27
36242;BME280;22283;42.748;12.732;2023-08-01T13:31:02;97123.31;;;34.06;34.00
36242;BME280;22283;42.748;12.732;2023-08-01T13:36:03;97107.41;;;34.03;34.67
36242;BME280;22283;42.748;12.732;2023-08-01T13:41:04;97111.50;;;34.35;35.07
36242;BME280;22283;42.748;12.732;2023-08-01T13:46:23;97116.00;;;34.79;34.36
36242;BME280;22283;42.748;12.732;2023-08-01T13:51:24;97109.50;;;34.93;33.40
36242;BME280;22283;42.748;12.732;2023-08-01T13:56:25;97091.59;;;34.48;33.32
36242;BME280;22283;42.748;12.732;2023-08-01T14:01:26;97103.97;;;34.50;33.77
36242;BME280;22283;42.748;12.732;2023-08-01T14:06:27;97099.63;;;34.68;34.44
36242;BME280;22283;42.748;12.732;2023-08-01T14:11:27;97098.75;;;34.97;34.28
36242;BME280;22283;42.748;12.732;2023-08-01T14:16:29;97099.03;;;34.95;34.25
36242;BME280;22283;42.748;12.732;2023-08-01T14:21:30;97099.97;;;34.86;33.83
36242;BME280;22283;42.748;12.732;2023-08-01T14:26:30;97095.19;;;34.72;34.16
36242;BME280;22283;42.748;12.732;2023-08-01T14:31:31;97105.63;;;33.83;35.00
36242;BME280;22283;42.748;12.732;2023-08-01T14:36:32;97095.34;;;33.70;35.55
36242;BME280;22283;42.748;12.732;2023-08-01T14:41:32;97088.28;;;33.59;36.82
36242;BME280;22283;42.748;12.732;2023-08-01T14:46:35;97092.44;;;33.51;37.12
36242;BME280;22283;42.748;12.732;2023-08-01T14:51:36;97090.72;;;33.60;37.66
36242;BME280;22283;42.748;12.732;2023-08-01T14:56:37;97079.25;;;33.53;38.19
36242;BME280;22283;42.748;12.732;2023-08-01T15:01:37;97078.22;;;32.89;39.14
36242;BME280;22283;42.748;12.732;2023-08-01T15:06:38;97089.72;;;32.91;40.48
36242;BME280;22283;42.748;12.732;2023-08-01T15:11:39;97076.34;;;32.74;41.13
36242;BME280;22283;42.748;12.732;2023-08-01T15:16:39;97060.91;;;33.04;41.40
36242;BME280;22283;42.748;12.732;2023-08-01T15:21:40;97062.84;;;32.98;41.56
36242;BME280;22283;42.748;12.732;2023-08-01T15:26:41;97066.56;;;32.63;42.23
36242;BME280;22283;42.748;12.732;2023-08-01T15:31:41;97079.25;;;32.23;42.16
36242;BME280;22283;42.748;12.732;2023-08-01T15:36:46;97101.97;;;31.98;43.02
36242;BME280;22283;42.748;12.732;2023-08-01T15:41:47;97102.25;;;32.12;42.72
36242;BME280;22283;42.748;12.732;2023-08-01T15:46:48;97105.00;;;31.92;42.48
36242;BME280;22283;42.748;12.732;2023-08-01T15:51:49;97099.47;;;31.71;42.48
36242;BME280;22283;42.748;12.732;2023-08-01T15:56:49;97101.41;;;31.66;42.75
36242;BME280;22283;42.748;12.732;2023-08-01T16:01:50;97099.75;;;31.59;42.29
36242;BME280;22283;42.748;12.732;2023-08-01T16:06:50;97107.97;;;31.70;42.20
36242;BME280;22283;42.748;12.732;2023-08-01T16:11:51;97102.75;;;31.63;42.71
36242;BME280;22283;42.748;12.732;2023-08-01T16:16:52;97101.94;;;31.68;43.16
36242;BME280;22283;42.748;12.732;2023-08-01T16:21:52;97107.44;;;31.73;42.73
36242;BME280;22283;42.748;12.732;2023-08-01T16:26:53;97115.34;;;31.54;42.55
36242;BME280;22283;42.748;12.732;2023-08-01T16:31:53;97112.75;;;31.11;43.46
36242;BME280;22283;42.748;12.732;2023-08-01T16:36:54;97123.94;;;31.05;43.25
36242;BME280;22283;42.748;12.732;2023-08-01T16:41:55;97133.66;;;30.80;43.24
36242;BME280;22283;42.748;12.732;2023-08-01T16:46:55;97131.38;;;30.62;43.08
36242;BME280;22283;42.748;12.732;2023-08-01T16:51:56;97141.41;;;30.56;43.42
36242;BME280;22283;42.748;12.732;2023-08-01T16:56:57;97134.00;;;30.47;43.56
36242;BME280;22283;42.748;12.732;2023-08-01T17:01:57;97150.47;;;30.20;43.99
36242;BME280;22283;42.748;12.732;2023-08-01T17:06:58;97151.19;;;30.10;44.01
36242;BME280;22283;42.748;12.732;2023-08-01T17:12:01;97151.41;;;30.03;44.01
36242;BME280;22283;42.748;12.732;2023-08-01T17:17:02;97149.38;;;29.88;44.16
36242;BME280;22283;42.748;12.732;2023-08-01T17:22:03;97145.03;;;29.93;44.24
36242;BME280;22283;42.748;12.732;2023-08-01T17:27:03;97129.56;;;29.66;44.32
36242;BME280;22283;42.748;12.732;2023-08-01T17:32:05;97144.66;;;29.52;44.11
36242;BME280;22283;42.748;12.732;2023-08-01T17:37:06;97148.00;;;29.10;44.94
36242;BME280;22283;42.748;12.732;2023-08-01T17:42:06;97147.59;;;28.79;44.98
36242;BME280;22283;42.748;12.732;2023-08-01T17:47:07;97153.13;;;28.46;45.88
36242;BME280;22283;42.748;12.732;2023-08-01T17:52:08;97154.13;;;28.06;46.73
36242;BME280;22283;42.748;12.732;2023-08-01T17:57:09;97159.22;;;27.85;47.25
36242;BME280;22283;42.748;12.732;2023-08-01T18:02:09;97159.47;;;27.55;47.30
36242;BME280;22283;42.748;12.732;2023-08-01T18:07:10;97168.47;;;27.27;46.96
36242;BME280;22283;42.748;12.732;2023-08-01T18:12:11;97160.72;;;27.07;46.04
36242;BME280;22283;42.748;12.732;2023-08-01T18:17:11;97154.41;;;26.90;45.63
36242;BME280;22283;42.748;12.732;2023-08-01T18:22:12;97167.19;;;26.66;45.47
36242;BME280;22283;42.748;12.732;2023-08-01T18:27:13;97179.47;;;26.33;45.21
36242;BME280;22283;42.748;12.732;2023-08-01T18:32:13;97187.09;;;26.13;45.97
36242;BME280;22283;42.748;12.732;2023-08-01T18:37:14;97190.94;;;25.93;45.75
36242;BME280;22283;42.748;12.732;2023-08-01T18:42:15;97188.28;;;25.75;45.79
36242;BME280;22283;42.748;12.732;2023-08-01T18:47:16;97195.19;;;25.59;45.79
36242;BME280;22283;42.748;12.732;2023-08-01T18:52:17;97200.31;;;25.49;45.96
36242;BME280;22283;42.748;12.732;2023-08-01T18:57:18;97198.63;;;25.36;46.22
36242;BME280;22283;42.748;12.732;2023-08-01T19:02:19;97190.38;;;25.31;47.49
36242;BME280;22283;42.748;12.732;2023-08-01T19:07:20;97193.84;;;25.20;48.84
36242;BME280;22283;42.748;12.732;2023-08-01T19:12:20;97188.75;;;25.12;51.35
36242;BME280;22283;42.748;12.732;2023-08-01T19:17:22;97190.44;;;25.06;52.67
36242;BME280;22283;42.748;12.732;2023-08-01T19:22:23;97187.66;;;24.94;53.20
36242;BME280;22283;42.748;12.732;2023-08-01T19:27:24;97184.38;;;24.92;53.88
36242;BME280;22283;42.748;12.732;2023-08-01T19:32:24;97179.84;;;24.86;54.56
36242;BME280;22283;42.748;12.732;2023-08-01T19:37:25;97181.22;;;24.77;55.53
36242;BME280;22283;42.748;12.732;2023-08-01T19:42:26;97172.22;;;24.65;56.57
36242;BME280;22283;42.748;12.732;2023-08-01T19:47:26;97185.66;;;24.53;58.23
36242;BME280;22283;42.748;12.732;2023-08-01T19:52:27;97194.56;;;24.53;59.28
36242;BME280;22283;42.748;12.732;2023-08-01T19:57:28;97211.09;;;24.45;59.63
36242;BME280;22283;42.748;12.732;2023-08-01T20:02:30;97224.66;;;24.39;61.10
36242;BME280;22283;42.748;12.732;2023-08-01T20:07:31;97211.63;;;24.29;62.70
36242;BME280;22283;42.748;12.732;2023-08-01T20:12:32;97217.91;;;24.23;63.84
36242;BME280;22283;42.748;12.732;2023-08-01T20:17:33;97212.84;;;24.08;64.75
36242;BME280;22283;42.748;12.732;2023-08-01T20:22:34;97231.38;;;24.04;65.42
36242;BME280;22283;42.748;12.732;2023-08-01T20:27:34;97240.03;;;23.88;66.91
36242;BME280;22283;42.748;12.732;2023-08-01T20:32:36;97250.16;;;23.93;67.86
36242;BME280;22283;42.748;12.732;2023-08-01T20:37:37;97239.41;;;23.86;68.10
36242;BME280;22283;42.748;12.732;2023-08-01T20:42:38;97246.44;;;23.87;67.52
36242;BME280;22283;42.748;12.732;2023-08-01T20:47:39;97247.66;;;23.91;68.07
36242;BME280;22283;42.748;12.732;2023-08-01T20:52:39;97263.13;;;23.84;69.04
36242;BME280;22283;42.748;12.732;2023-08-01T20:57:40;97263.56;;;23.74;70.32
36242;BME280;22283;42.748;12.732;2023-08-01T21:02:41;97280.44;;;23.63;70.03
36242;BME280;22283;42.748;12.732;2023-08-01T21:07:42;97262.00;;;23.53;70.68
36242;BME280;22283;42.748;12.732;2023-08-01T21:12:42;97262.84;;;23.47;72.19
36242;BME280;22283;42.748;12.732;2023-08-01T21:17:43;97268.72;;;23.44;73.85
36242;BME280;22283;42.748;12.732;2023-08-01T21:22:44;97272.00;;;23.46;74.89
36242;BME280;22283;42.748;12.732;2023-08-01T21:27:44;97260.44;;;23.33;75.58
36242;BME280;22283;42.748;12.732;2023-08-01T21:32:45;97279.19;;;23.21;76.47
36242;BME280;22283;42.748;12.732;2023-08-01T21:37:46;97281.25;;;23.12;77.60
36242;BME280;22283;42.748;12.732;2023-08-01T21:42:50;97285.47;;;23.01;78.94
36242;BME280;22283;42.748;12.732;2023-08-01T21:47:51;97289.41;;;23.05;79.45
36242;BME280;22283;42.748;12.732;2023-08-01T21:52:52;97300.59;;;23.02;71.95
36242;BME280;22283;42.748;12.732;2023-08-01T21:57:52;97306.22;;;23.01;70.60
36242;BME280;22283;42.748;12.732;2023-08-01T22:02:53;97314.09;;;22.89;74.83
36242;BME280;22283;42.748;12.732;2023-08-01T22:07:54;97315.97;;;22.89;77.91
36242;BME280;22283;42.748;12.732;2023-08-01T22:12:55;97320.72;;;22.87;79.21
36242;BME280;22283;42.748;12.732;2023-08-01T22:17:56;97306.22;;;22.74;81.29
36242;BME280;22283;42.748;12.732;2023-08-01T22:22:56;97304.56;;;22.73;82.11
36242;BME280;22283;42.748;12.732;2023-08-01T22:27:57;97300.84;;;22.61;79.63
36242;BME280;22283;42.748;12.732;2023-08-01T22:32:58;97295.66;;;22.53;79.11
36242;BME280;22283;42.748;12.732;2023-08-01T22:37:59;97292.13;;;22.52;79.17
36242;BME280;22283;42.748;12.732;2023-08-01T22:42:59;97294.81;;;22.52;80.68
36242;BME280;22283;42.748;12.732;2023-08-01T22:48:00;97280.31;;;22.47;82.11
36242;BME280;22283;42.748;12.732;2023-08-01T22:53:01;97282.81;;;22.48;82.55
36242;BME280;22283;42.748;12.732;2023-08-01T22:58:04;97274.31;;;22.51;81.82
36242;BME280;22283;42.748;12.732;2023-08-01T23:03:05;97282.59;;;22.43;76.31
36242;BME280;22283;42.748;12.732;2023-08-01T23:08:06;97295.88;;;22.31;75.05
36242;BME280;22283;42.748;12.732;2023-08-01T23:13:07;97306.63;;;22.25;75.91
36242;BME280;22283;42.748;12.732;2023-08-01T23:18:07;97300.63;;;22.23;74.27
36242;BME280;22283;42.748;12.732;2023-08-01T23:23:08;97305.19;;;22.16;76.39
36242;BME280;22283;42.748;12.732;2023-08-01T23:28:08;97293.81;;;22.14;80.54
36242;BME280;22283;42.748;12.732;2023-08-01T23:33:09;97302.50;;;22.16;83.73
36242;BME280;22283;42.748;12.732;2023-08-01T23:38:10;97304.16;;;22.17;84.22
36242;BME280;22283;42.748;12.732;2023-08-01T23:43:11;97309.16;;;22.26;82.43
36242;BME280;22283;42.748;12.732;2023-08-01T23:48:12;97302.50;;;22.16;83.69
36242;BME280;22283;42.748;12.732;2023-08-01T23:53:15;97302.72;;;22.14;87.44
36242;BME280;22283;42.748;12.732;2023-08-01T23:58:16;97302.88;;;22.06;88.64
